UAE363 ZGGG-OMDB
Flight info
| Callsign | UAE363 |
|---|---|
| Flight time | N/A |
| Altitude | 36100 |
| Route | VIBOS9 VIBOS R473 ZUH R200 LH R339 BSE A599 LINSO/N0467F361 A599 CTG B465 CEA A791 BPL L639 RASKI L301 RAGMA N571 VUSET A454 PASOV B540 MIVEK P574 IMPED |
| Aircraft | A343/H-SDE2E3FGHIJ4J5M1RWXY/LB1D1 |
Departure
| Time | 2026-04-29 18:21 |
|---|---|
| Airport | Guangzhou Baiyun International Airport (ZGGG) |
Arrival
| Time | N/A |
|---|---|
| Airport | Dubai International Airport (OMDB) |
| Time | Latitude | Longitude | Altitude | Speed | Heading |
|---|---|---|---|---|---|
| 2026-04-29 17:54 | 23.38393 | 113.30006 | 62 ft | 0 kts | 52° |
| 2026-04-29 18:12 | 23.38391 | 113.30004 | 53 ft | 3 kts | 52° |
| 2026-04-29 18:12 | 23.38376 | 113.29980 | 62 ft | 4 kts | 60° |
| 2026-04-29 18:13 | 23.38364 | 113.29955 | 57 ft | 4 kts | 71° |
| 2026-04-29 18:13 | 23.38358 | 113.29926 | 62 ft | 4 kts | 91° |
| 2026-04-29 18:13 | 23.38364 | 113.29902 | 53 ft | 3 kts | 139° |
| 2026-04-29 18:13 | 23.38369 | 113.29897 | 53 ft | 0 kts | 142° |
| 2026-04-29 18:17 | 23.38359 | 113.29906 | 55 ft | 8 kts | 142° |
| 2026-04-29 18:17 | 23.38295 | 113.29960 | 53 ft | 15 kts | 142° |
| 2026-04-29 18:17 | 23.38208 | 113.30033 | 53 ft | 12 kts | 142° |
| 2026-04-29 18:17 | 23.38168 | 113.30114 | 55 ft | 14 kts | 103° |
| 2026-04-29 18:18 | 23.38142 | 113.30225 | 55 ft | 16 kts | 104° |
| 2026-04-29 18:18 | 23.38114 | 113.30344 | 62 ft | 16 kts | 104° |
| 2026-04-29 18:18 | 23.38084 | 113.30447 | 55 ft | 9 kts | 132° |
| 2026-04-29 18:18 | 23.37984 | 113.30444 | 54 ft | 20 kts | 193° |
| 2026-04-29 18:19 | 23.37826 | 113.30401 | 62 ft | 24 kts | 194° |
| 2026-04-29 18:19 | 23.37681 | 113.30363 | 53 ft | 13 kts | 193° |
| 2026-04-29 18:19 | 23.37636 | 113.30363 | 60 ft | 8 kts | 155° |
| 2026-04-29 18:19 | 23.37603 | 113.30442 | 56 ft | 14 kts | 107° |
| 2026-04-29 18:20 | 23.37595 | 113.30527 | 60 ft | 7 kts | 64° |
| 2026-04-29 18:20 | 23.37639 | 113.30551 | 57 ft | 0 kts | 14° |
| 2026-04-29 18:20 | 23.37646 | 113.30553 | 56 ft | 8 kts | 14° |
| 2026-04-29 18:20 | 23.37925 | 113.30630 | 56 ft | 77 kts | 13° |
| 2026-04-29 18:21 | 23.38648 | 113.30825 | 57 ft | 138 kts | 14° |
| 2026-04-29 18:21 | 23.39754 | 113.31120 | 90 ft | 186 kts | 13° |
| 2026-04-29 18:21 | 23.41011 | 113.31459 | 912 ft | 183 kts | 14° |
| 2026-04-29 18:21 | 23.42282 | 113.31815 | 1542 ft | 197 kts | 15° |
| 2026-04-29 18:22 | 23.43668 | 113.32229 | 1831 ft | 221 kts | 15° |
| 2026-04-29 18:22 | 23.45185 | 113.32691 | 2465 ft | 229 kts | 15° |
| 2026-04-29 18:22 | 23.46740 | 113.33162 | 3211 ft | 234 kts | 15° |
| 2026-04-29 18:22 | 23.48322 | 113.33638 | 3973 ft | 238 kts | 15° |
| 2026-04-29 18:23 | 23.49935 | 113.34119 | 4703 ft | 243 kts | 14° |
| 2026-04-29 18:23 | 23.51581 | 113.34608 | 5434 ft | 247 kts | 14° |
| 2026-04-29 18:23 | 23.53259 | 113.35107 | 6140 ft | 253 kts | 15° |
| 2026-04-29 18:23 | 23.54977 | 113.35621 | 6834 ft | 258 kts | 14° |
| 2026-04-29 18:24 | 23.56747 | 113.36044 | 7527 ft | 263 kts | 9° |
| 2026-04-29 18:24 | 23.58564 | 113.36403 | 8218 ft | 268 kts | 7° |
| 2026-04-29 18:24 | 23.60431 | 113.36485 | 8794 ft | 272 kts | 348° |
| 2026-04-29 18:24 | 23.62173 | 113.35720 | 9380 ft | 272 kts | 320° |
| 2026-04-29 18:25 | 23.63397 | 113.34157 | 9888 ft | 275 kts | 292° |
| 2026-04-29 18:25 | 23.63881 | 113.32137 | 10414 ft | 280 kts | 276° |
| 2026-04-29 18:25 | 23.64142 | 113.29977 | 10749 ft | 295 kts | 276° |
| 2026-04-29 18:25 | 23.64421 | 113.27702 | 11082 ft | 310 kts | 276° |
| 2026-04-29 18:26 | 23.64729 | 113.25325 | 11399 ft | 323 kts | 276° |
| 2026-04-29 18:26 | 23.65058 | 113.22849 | 11705 ft | 336 kts | 276° |
| 2026-04-29 18:26 | 23.65392 | 113.20301 | 12175 ft | 342 kts | 275° |
| 2026-04-29 18:26 | 23.65410 | 113.17704 | 12707 ft | 344 kts | 261° |
| 2026-04-29 18:27 | 23.64716 | 113.15201 | 13236 ft | 349 kts | 244° |
| 2026-04-29 18:27 | 23.63305 | 113.13035 | 13771 ft | 354 kts | 228° |
| 2026-04-29 18:27 | 23.61536 | 113.11143 | 14313 ft | 358 kts | 225° |
| 2026-04-29 18:27 | 23.59607 | 113.09391 | 14828 ft | 365 kts | 216° |
| 2026-04-29 18:28 | 23.57297 | 113.08208 | 15344 ft | 374 kts | 199° |
| 2026-04-29 18:28 | 23.54681 | 113.07840 | 15875 ft | 383 kts | 185° |
| 2026-04-29 18:28 | 23.52000 | 113.07845 | 16406 ft | 388 kts | 183° |
| 2026-04-29 18:28 | 23.49290 | 113.07887 | 16904 ft | 391 kts | 183° |
| 2026-04-29 18:29 | 23.46556 | 113.07924 | 17396 ft | 395 kts | 183° |
| 2026-04-29 18:29 | 23.44731 | 113.07949 | 17733 ft | 397 kts | 184° |
| 2026-04-29 18:29 | 23.41024 | 113.07976 | 18389 ft | 400 kts | 184° |
| 2026-04-29 18:29 | 23.38227 | 113.07992 | 18866 ft | 403 kts | 184° |
| 2026-04-29 18:30 | 23.35407 | 113.08008 | 19311 ft | 407 kts | 184° |
| 2026-04-29 18:30 | 23.32601 | 113.08023 | 19734 ft | 410 kts | 184° |
| 2026-04-29 18:30 | 23.29734 | 113.08040 | 20173 ft | 414 kts | 184° |
| 2026-04-29 18:30 | 23.26842 | 113.08215 | 20590 ft | 421 kts | 175° |
| 2026-04-29 18:31 | 23.23990 | 113.09046 | 20995 ft | 430 kts | 163° |
| 2026-04-29 18:31 | 23.21202 | 113.10276 | 21392 ft | 434 kts | 161° |
| 2026-04-29 18:31 | 23.18411 | 113.11566 | 21777 ft | 438 kts | 161° |
| 2026-04-29 18:31 | 23.15599 | 113.12862 | 22158 ft | 440 kts | 161° |
| 2026-04-29 18:32 | 23.12767 | 113.14161 | 22523 ft | 443 kts | 161° |
| 2026-04-29 18:32 | 23.07048 | 113.16771 | 23242 ft | 449 kts | 161° |
| 2026-04-29 18:32 | 23.04162 | 113.18085 | 23602 ft | 451 kts | 161° |
| 2026-04-29 18:33 | 23.01258 | 113.19404 | 23930 ft | 453 kts | 161° |
| 2026-04-29 18:33 | 22.98278 | 113.20518 | 24258 ft | 453 kts | 167° |
| 2026-04-29 18:33 | 22.95252 | 113.21511 | 24598 ft | 455 kts | 167° |
| 2026-04-29 18:33 | 22.92213 | 113.22519 | 24930 ft | 458 kts | 167° |
| 2026-04-29 18:34 | 22.89171 | 113.23547 | 25269 ft | 460 kts | 167° |
| 2026-04-29 18:34 | 22.87104 | 113.24253 | 25501 ft | 461 kts | 166° |
| 2026-04-29 18:34 | 22.83041 | 113.25649 | 25923 ft | 464 kts | 166° |
| 2026-04-29 18:34 | 22.79959 | 113.26714 | 26257 ft | 466 kts | 166° |
| 2026-04-29 18:35 | 22.76863 | 113.27784 | 26568 ft | 468 kts | 166° |
| 2026-04-29 18:35 | 22.73754 | 113.28860 | 26885 ft | 470 kts | 166° |
| 2026-04-29 18:35 | 22.70634 | 113.29940 | 27188 ft | 472 kts | 166° |
| 2026-04-29 18:35 | 22.67502 | 113.31024 | 27471 ft | 474 kts | 166° |
| 2026-04-29 18:36 | 22.64356 | 113.32112 | 27762 ft | 475 kts | 166° |
| 2026-04-29 18:36 | 22.61201 | 113.33206 | 28047 ft | 477 kts | 166° |
| 2026-04-29 18:36 | 22.58036 | 113.34306 | 28327 ft | 478 kts | 166° |
| 2026-04-29 18:36 | 22.54858 | 113.35404 | 28584 ft | 480 kts | 166° |
| 2026-04-29 18:37 | 22.51675 | 113.36501 | 28829 ft | 482 kts | 166° |
| 2026-04-29 18:37 | 22.48473 | 113.37603 | 29100 ft | 483 kts | 166° |
| 2026-04-29 18:37 | 22.45265 | 113.38708 | 29363 ft | 485 kts | 166° |
| 2026-04-29 18:37 | 22.42046 | 113.39816 | 29594 ft | 486 kts | 166° |
| 2026-04-29 18:38 | 22.38816 | 113.40929 | 29810 ft | 488 kts | 166° |
| 2026-04-29 18:38 | 22.35577 | 113.42045 | 30056 ft | 489 kts | 166° |
| 2026-04-29 18:38 | 22.32327 | 113.43148 | 30288 ft | 489 kts | 168° |
| 2026-04-29 18:38 | 22.29001 | 113.43816 | 30545 ft | 484 kts | 179° |
| 2026-04-29 18:39 | 22.25664 | 113.43749 | 30841 ft | 477 kts | 191° |
| 2026-04-29 18:39 | 22.22466 | 113.42904 | 31109 ft | 471 kts | 204° |
| 2026-04-29 18:39 | 22.19568 | 113.41309 | 31365 ft | 466 kts | 217° |
| 2026-04-29 18:39 | 22.17111 | 113.39064 | 31645 ft | 462 kts | 229° |
| 2026-04-29 18:40 | 22.15221 | 113.36344 | 31917 ft | 459 kts | 241° |
| 2026-04-29 18:40 | 22.13912 | 113.33177 | 32174 ft | 457 kts | 253° |
| 2026-04-29 18:40 | 22.13298 | 113.29822 | 32463 ft | 456 kts | 265° |
| 2026-04-29 18:40 | 22.13368 | 113.26449 | 32704 ft | 457 kts | 277° |
| 2026-04-29 18:41 | 22.13833 | 113.16276 | 33378 ft | 454 kts | 257° |
| 2026-04-29 18:41 | 22.12907 | 113.13033 | 33604 ft | 453 kts | 246° |
| 2026-04-29 18:42 | 22.11374 | 113.10069 | 33817 ft | 454 kts | 235° |
| 2026-04-29 18:42 | 22.09288 | 113.07514 | 34016 ft | 455 kts | 224° |
| 2026-04-29 18:42 | 22.07045 | 113.05111 | 34217 ft | 454 kts | 231° |
| 2026-04-29 18:42 | 22.05156 | 113.02398 | 34409 ft | 452 kts | 239° |
| 2026-04-29 18:43 | 22.03645 | 112.99440 | 34657 ft | 449 kts | 243° |
| 2026-04-29 18:43 | 22.02290 | 112.96418 | 34871 ft | 448 kts | 246° |
| 2026-04-29 18:43 | 22.01044 | 112.93337 | 35041 ft | 449 kts | 247° |
| 2026-04-29 18:43 | 21.99854 | 112.90233 | 35246 ft | 448 kts | 248° |
| 2026-04-29 18:44 | 21.98683 | 112.87128 | 35440 ft | 447 kts | 248° |
| 2026-04-29 18:44 | 21.97508 | 112.84023 | 35575 ft | 448 kts | 248° |
| 2026-04-29 18:44 | 21.96321 | 112.80922 | 35734 ft | 448 kts | 247° |
| 2026-04-29 18:44 | 21.95107 | 112.77840 | 35934 ft | 446 kts | 246° |
| 2026-04-29 18:45 | 21.93874 | 112.74770 | 36073 ft | 447 kts | 246° |
| 2026-04-29 18:45 | 21.92628 | 112.71695 | 36098 ft | 449 kts | 246° |
| 2026-04-29 18:45 | 21.90135 | 112.65556 | 36098 ft | 446 kts | 246° |
| 2026-04-29 18:46 | 21.87660 | 112.59451 | 36105 ft | 445 kts | 246° |
| 2026-04-29 18:46 | 21.85185 | 112.53339 | 36108 ft | 446 kts | 246° |
| 2026-04-29 18:47 | 21.82740 | 112.47202 | 36110 ft | 446 kts | 247° |
| 2026-04-29 18:47 | 21.80333 | 112.41097 | 36110 ft | 446 kts | 247° |
| 2026-04-29 18:48 | 21.77902 | 112.34955 | 36109 ft | 446 kts | 247° |
| 2026-04-29 18:48 | 21.75461 | 112.28816 | 36110 ft | 447 kts | 247° |
| 2026-04-29 18:49 | 21.73015 | 112.22677 | 36110 ft | 447 kts | 247° |
| 2026-04-29 18:49 | 21.70563 | 112.16533 | 36108 ft | 447 kts | 246° |
| 2026-04-29 18:50 | 21.68107 | 112.10392 | 36110 ft | 447 kts | 246° |
| 2026-04-29 18:50 | 21.65653 | 112.04252 | 36110 ft | 447 kts | 246° |
| 2026-04-29 18:51 | 21.63196 | 111.98113 | 36113 ft | 447 kts | 246° |
| 2026-04-29 18:51 | 21.60737 | 111.91977 | 36122 ft | 447 kts | 246° |
| 2026-04-29 18:52 | 21.58270 | 111.85833 | 36119 ft | 447 kts | 246° |
| 2026-04-29 18:52 | 21.56123 | 111.79574 | 36115 ft | 447 kts | 252° |
| 2026-04-29 18:53 | 21.54262 | 111.73201 | 36117 ft | 447 kts | 252° |
| 2026-04-29 18:53 | 21.52445 | 111.66823 | 36115 ft | 446 kts | 252° |
| 2026-04-29 18:54 | 21.50637 | 111.60494 | 36123 ft | 446 kts | 252° |
| 2026-04-29 18:54 | 21.48810 | 111.54134 | 36129 ft | 446 kts | 252° |
| 2026-04-29 18:55 | 21.46975 | 111.47768 | 36130 ft | 446 kts | 252° |
| 2026-04-29 18:55 | 21.45137 | 111.41405 | 36127 ft | 446 kts | 252° |
| 2026-04-29 18:56 | 21.43299 | 111.35051 | 36124 ft | 445 kts | 252° |
| 2026-04-29 18:56 | 21.41461 | 111.28703 | 36120 ft | 445 kts | 252° |
| 2026-04-29 18:57 | 21.39620 | 111.22356 | 36130 ft | 445 kts | 252° |
| 2026-04-29 18:57 | 21.37777 | 111.16010 | 36130 ft | 445 kts | 252° |
| 2026-04-29 18:58 | 21.35933 | 111.09674 | 36122 ft | 445 kts | 252° |
| 2026-04-29 18:58 | 21.34396 | 111.04400 | 36127 ft | 445 kts | 252° |
| 2026-04-29 18:59 | 21.32546 | 110.98060 | 36128 ft | 445 kts | 252° |
| 2026-04-29 18:59 | 21.30694 | 110.91720 | 36131 ft | 445 kts | 252° |
| 2026-04-29 19:00 | 21.28829 | 110.85347 | 36129 ft | 445 kts | 252° |
| 2026-04-29 19:00 | 21.26971 | 110.79010 | 36143 ft | 445 kts | 252° |
| 2026-04-29 19:01 | 21.25122 | 110.72713 | 36134 ft | 446 kts | 252° |
| 2026-04-29 19:01 | 21.23256 | 110.66367 | 36127 ft | 446 kts | 252° |
| 2026-04-29 19:02 | 21.21388 | 110.60021 | 36139 ft | 446 kts | 252° |
| 2026-04-29 19:02 | 21.19517 | 110.53677 | 36127 ft | 446 kts | 252° |
| 2026-04-29 19:03 | 21.17644 | 110.47335 | 36136 ft | 446 kts | 252° |
| 2026-04-29 19:03 | 21.15794 | 110.40993 | 36128 ft | 447 kts | 255° |
| 2026-04-29 19:04 | 21.15056 | 110.34396 | 36145 ft | 449 kts | 271° |
| 2026-04-29 19:04 | 21.16377 | 110.27862 | 36144 ft | 454 kts | 290° |
| 2026-04-29 19:05 | 21.19204 | 110.21790 | 36146 ft | 457 kts | 296° |
| 2026-04-29 19:05 | 21.22268 | 110.15817 | 36146 ft | 457 kts | 296° |
| 2026-04-29 19:06 | 21.25332 | 110.09846 | 36146 ft | 457 kts | 296° |
| 2026-04-29 19:07 | 21.29862 | 110.00871 | 36152 ft | 456 kts | 295° |
| 2026-04-29 19:07 | 21.32869 | 109.94875 | 36154 ft | 456 kts | 295° |
| 2026-04-29 19:08 | 21.35874 | 109.88875 | 36153 ft | 456 kts | 295° |
| 2026-04-29 19:08 | 21.38878 | 109.82874 | 36154 ft | 456 kts | 295° |
| 2026-04-29 19:09 | 21.41880 | 109.76871 | 36165 ft | 457 kts | 295° |
| 2026-04-29 19:09 | 21.44882 | 109.70862 | 36163 ft | 457 kts | 295° |
| 2026-04-29 19:10 | 21.47881 | 109.64853 | 36180 ft | 457 kts | 295° |
| 2026-04-29 19:10 | 21.50879 | 109.58838 | 36184 ft | 457 kts | 295° |
| 2026-04-29 19:11 | 21.53872 | 109.52828 | 36181 ft | 457 kts | 295° |
| 2026-04-29 19:11 | 21.56866 | 109.46809 | 36186 ft | 457 kts | 295° |
| 2026-04-29 19:12 | 21.60330 | 109.41123 | 36192 ft | 460 kts | 305° |
| 2026-04-29 19:12 | 21.64390 | 109.35789 | 36193 ft | 461 kts | 307° |
| 2026-04-29 19:13 | 21.68535 | 109.30516 | 36188 ft | 462 kts | 307° |
| 2026-04-29 19:13 | 21.72679 | 109.25244 | 36197 ft | 461 kts | 307° |
| 2026-04-29 19:14 | 21.76805 | 109.19967 | 36200 ft | 461 kts | 307° |
| 2026-04-29 19:14 | 21.80929 | 109.14674 | 36200 ft | 461 kts | 306° |
| 2026-04-29 19:15 | 21.85051 | 109.09378 | 36200 ft | 461 kts | 306° |
| 2026-04-29 19:15 | 21.89185 | 109.04090 | 36200 ft | 461 kts | 307° |
| 2026-04-29 19:16 | 21.93324 | 108.98806 | 36208 ft | 461 kts | 307° |
| 2026-04-29 19:16 | 21.97458 | 108.93522 | 36210 ft | 461 kts | 307° |
| 2026-04-29 19:17 | 22.01584 | 108.88241 | 36209 ft | 461 kts | 306° |
| 2026-04-29 19:17 | 22.05703 | 108.82963 | 36209 ft | 459 kts | 306° |
| 2026-04-29 19:18 | 22.09804 | 108.77701 | 36209 ft | 458 kts | 306° |
| 2026-04-29 19:18 | 22.13905 | 108.72441 | 36218 ft | 458 kts | 306° |
| 2026-04-29 19:19 | 22.18015 | 108.67186 | 36219 ft | 458 kts | 306° |
| 2026-04-29 19:19 | 22.22123 | 108.61932 | 36219 ft | 458 kts | 306° |
| 2026-04-29 19:20 | 22.26227 | 108.56676 | 36219 ft | 458 kts | 306° |
| 2026-04-29 19:20 | 22.30325 | 108.51422 | 36213 ft | 458 kts | 306° |
| 2026-04-29 19:21 | 22.34425 | 108.46159 | 36195 ft | 458 kts | 306° |
| 2026-04-29 19:21 | 22.38524 | 108.40893 | 36202 ft | 458 kts | 306° |
| 2026-04-29 19:22 | 22.42621 | 108.35624 | 36200 ft | 458 kts | 306° |
| 2026-04-29 19:22 | 22.46712 | 108.30356 | 36200 ft | 457 kts | 306° |
| 2026-04-29 19:23 | 22.50800 | 108.25087 | 36200 ft | 457 kts | 306° |
| 2026-04-29 19:23 | 22.54888 | 108.19813 | 36201 ft | 458 kts | 306° |